Warrenton, Oregon
Current Conditions -  °F | °C
As of 4:55 PM on Tuesday 21 Oct 2014 (Local Time) from KAST Reporting Station
Overcast Overcast  
Wind Chill: 61°   Ceiling: 7500
Heat Index: 61°   Visibility: 10mi
Dew Point: 53°   Wind: 14mph
Humidity: 75%   Direction: 200°SSW
Pressure: 29.86"   Gusts: 25mph
Location:  46.17°N, 123.92°W
Report Text: KAST 212355Z AUTO 20012G22KT 10SM SCT026 OVC075 16/12 A2986 RMK AO2 SLP110 60000 T01610117 10167 20144 58012
Loading
Personal Weather Stations






























Interactive Weather Map
Tropical Storm Tracking
New forecast layout! Learn more

10-Day Weather Forecast

Advertisements
Track Severe Weather on mobile